^^
Grace C. Lehan Memorial Weather Station Historical Data
Daily Summary for March 2, 2021 Units:  Metric    English   Both
Daily Weekly Monthly Yearly
  High: Low: Average:
Temperature: 23.9 °C 9.1 °C 16.6 °C
Dew Point: 15.4 °C 8 °C 12.1 °C
Humidity: 94% 56.5% 76%
Wind Speed: 4.2km/h 0km/h 0.5km/h
Wind Gust: 17.7km/h - -
Wind- - WSW
Pressure: 1021.2 hPa 1015.1 hPa -
Precipitation: 0 mm    
 
 
Tabular Data for March 2, 2021
Time Temperature Dew Point Pressure Wind Wind Speed Wind Gust Humidity Rainfall Rate (Hourly) solar
00:09 10.3 °C 8.7 °C 1021.2 hPa Calm     90% 0 mm 0 W/m2
00:14 10.2 °C 8.7 °C 1021.2 hPa Calm     90% 0 mm 0 W/m2
00:19 10.2 °C 8.7 °C 1020.9 hPa Calm     90% 0 mm 0 W/m2
00:24 10.2 °C 8.6 °C 1020.9 hPa Calm     90% 0 mm 0 W/m2
00:29 10.2 °C 8.6 °C 1020.9 hPa Calm     90% 0 mm 0 W/m2
00:34 10.1 °C 8.7 °C 1020.9 hPa Calm     91% 0 mm 0 W/m2
00:39 10.1 °C 8.7 °C 1020.9 hPa Calm     91% 0 mm 0 W/m2
00:44 10.1 °C 8.7 °C 1020.9 hPa Calm     91% 0 mm 0 W/m2
00:49 10.1 °C 8.7 °C 1020.9 hPa Calm     91% 0 mm 0 W/m2
00:54 10.1 °C 8.7 °C 1020.9 hPa Calm     91% 0 mm 0 W/m2
00:59 10.1 °C 8.7 °C 1020.9 hPa Calm     91.4% 0 mm 0 W/m2
01:04 10.1 °C 8.7 °C 1021.2 hPa Calm     91.2% 0 mm 0 W/m2
01:09 10.1 °C 8.7 °C 1021.2 hPa Calm     91% 0 mm 0 W/m2
01:14 10 °C 8.6 °C 1021.2 hPa Calm     91% 0 mm 0 W/m2
01:19 9.9 °C 8.7 °C 1021.2 hPa Calm     91.7% 0 mm 0 W/m2
01:24 9.9 °C 8.5 °C 1021.2 hPa Calm     91% 0 mm 0 W/m2
01:29 9.8 °C 8.6 °C 1020.9 hPa Calm     91.8% 0 mm 0 W/m2
01:34 9.8 °C 8.6 °C 1020.9 hPa Calm     92% 0 mm 0 W/m2
01:39 9.7 °C 8.5 °C 1020.9 hPa Calm     92% 0 mm 0 W/m2
01:44 9.7 °C 8.4 °C 1020.9 hPa Calm     92% 0 mm 0 W/m2
01:49 9.7 °C 8.4 °C 1020.9 hPa Calm     92% 0 mm 0 W/m2
01:54 9.6 °C 8.3 °C 1020.9 hPa Calm     92% 0 mm 0 W/m2
01:59 9.5 °C 8.3 °C 1020.9 hPa Calm     92% 0 mm 0 W/m2
02:04 9.4 °C 8.2 °C 1020.9 hPa Calm     92% 0 mm 0 W/m2
02:09 9.3 °C 8.1 °C 1020.9 hPa Calm     92% 0 mm 0 W/m2
02:14 9.3 °C 8.1 °C 1020.5 hPa Calm     92% 0 mm 0 W/m2
02:19 9.3 °C 8.1 °C 1020.5 hPa Calm     92% 0 mm 0 W/m2
02:24 9.3 °C 8.2 °C 1020.5 hPa Calm     92.7% 0 mm 0 W/m2
02:29 9.3 °C 8.3 °C 1020.5 hPa Calm     93% 0 mm 0 W/m2
02:34 9.3 °C 8.3 °C 1020.5 hPa Calm     93% 0 mm 0 W/m2
02:39 9.3 °C 8.3 °C 1020.5 hPa Calm     93% 0 mm 0 W/m2
02:44 9.4 °C 8.3 °C 1020.5 hPa WNW 0.2 km/h 3.2 km/h 93% 0 mm 0 W/m2
02:49 9.4 °C 8.3 °C 1020.5 hPa Calm   3.2 km/h 93% 0 mm 0 W/m2
02:54 9.4 °C 8.3 °C 1020.5 hPa Calm   3.2 km/h 93% 0 mm 0 W/m2
02:59 9.4 °C 8.3 °C 1020.5 hPa Calm   3.2 km/h 93% 0 mm 0 W/m2
03:04 9.4 °C 8.3 °C 1020.5 hPa Calm   3.2 km/h 93% 0 mm 0 W/m2
03:09 9.4 °C 8.4 °C 1020.5 hPa Calm     93% 0 mm 0 W/m2
03:14 9.4 °C 8.4 °C 1020.5 hPa Calm     93% 0 mm 0 W/m2
03:19 9.5 °C 8.4 °C 1020.5 hPa Calm     93% 0 mm 0 W/m2
03:24 9.6 °C 8.5 °C 1020.5 hPa Calm     93% 0 mm 0 W/m2
03:29 9.6 °C 8.5 °C 1020.5 hPa Calm     93% 0 mm 0 W/m2
03:34 9.6 °C 8.5 °C 1020.5 hPa Calm     93% 0 mm 0 W/m2
03:39 9.6 °C 8.4 °C 1020.5 hPa Calm     92.6% 0 mm 0 W/m2
03:44 9.5 °C 8.3 °C 1020.5 hPa Calm     92% 0 mm 0 W/m2
03:49 9.5 °C 8.3 °C 1020.5 hPa Calm     92% 0 mm 0 W/m2
03:54 9.4 °C 8.2 °C 1020.5 hPa West 0.5 km/h 4.8 km/h 92% 0 mm 0 W/m2
03:59 9.4 °C 8.2 °C 1020.5 hPa Calm   4.8 km/h 92% 0 mm 0 W/m2
04:09 9.3 °C 8.1 °C 1020.2 hPa Calm     92% 0 mm 0 W/m2
04:14 9.3 °C 8.1 °C 1020.5 hPa Calm     92% 0 mm 0 W/m2
04:19 9.3 °C 8.1 °C 1020.5 hPa Calm     92% 0 mm 0 W/m2
04:24 9.3 °C 8.1 °C 1020.5 hPa Calm     92% 0 mm 0 W/m2
04:29 9.3 °C 8.1 °C 1020.5 hPa Calm     92% 0 mm 0 W/m2
04:34 9.3 °C 8.1 °C 1020.5 hPa Calm     92% 0 mm 0 W/m2
04:39 9.3 °C 8.1 °C 1020.5 hPa Calm     92% 0 mm 0 W/m2
04:44 9.3 °C 8.1 °C 1020.5 hPa Calm     92.1% 0 mm 0 W/m2
04:49 9.4 °C 8.3 °C 1020.2 hPa Calm     93% 0 mm 0 W/m2
04:54 9.4 °C 8.4 °C 1020.5 hPa Calm     93% 0 mm 0 W/m2
04:59 9.5 °C 8.4 °C 1020.5 hPa Calm     93% 0 mm 0 W/m2
05:04 9.5 °C 8.4 °C 1020.5 hPa Calm     93% 0 mm 0 W/m2
05:09 9.4 °C 8.3 °C 1020.5 hPa Calm     92.2% 0 mm 0 W/m2
05:14 9.4 °C 8.2 °C 1020.2 hPa Calm     92% 0 mm 0 W/m2
05:19 9.4 °C 8.3 °C 1020.5 hPa West 0.3 km/h 4.8 km/h 92.2% 0 mm 0 W/m2
05:24 9.4 °C 8.4 °C 1020.2 hPa Calm   4.8 km/h 93% 0 mm 0 W/m2
05:29 9.5 °C 8.4 °C 1020.2 hPa Calm   4.8 km/h 93% 0 mm 0 W/m2
05:34 9.5 °C 8.4 °C 1020.2 hPa Calm   4.8 km/h 93% 0 mm 0 W/m2
05:39 9.4 °C 8.2 °C 1020.2 hPa Calm     92% 0 mm 0 W/m2
05:44 9.3 °C 8.1 °C 1020.2 hPa Calm     92% 0 mm 0 W/m2
05:49 9.3 °C 8.1 °C 1020.2 hPa Calm     92.4% 0 mm 0 W/m2
05:54 9.2 °C 8.2 °C 1020.2 hPa Calm     93% 0 mm 0 W/m2
05:59 9.2 °C 8.1 °C 1019.9 hPa Calm     93% 0 mm 0 W/m2
06:04 9.2 °C 8.1 °C 1019.9 hPa Calm     93% 0 mm 0 W/m2
06:09 9.1 °C 8.1 °C 1019.9 hPa Calm     93% 0 mm 0 W/m2
06:14 9.1 °C 8.1 °C 1019.9 hPa Calm     93% 0 mm 0 W/m2
06:19 9.1 °C 8 °C 1019.9 hPa Calm     93% 0 mm 0 W/m2
06:24 9.1 °C 8 °C 1019.9 hPa Calm     93% 0 mm 0 W/m2
06:29 9.1 °C 8.1 °C 1019.9 hPa Calm     93% 0 mm 0 W/m2
06:34 9.2 °C 8.3 °C 1019.9 hPa Calm     93.9% 0 mm 0 W/m2
06:39 9.3 °C 8.3 °C 1019.5 hPa Calm     94% 0 mm 0 W/m2
06:44 9.3 °C 8.3 °C 1019.9 hPa West 0.3 km/h 6.4 km/h 93.8% 0 mm 0 W/m2
06:49 9.3 °C 8.2 °C 1019.9 hPa Calm   6.4 km/h 93% 0 mm 0 W/m2
06:54 9.3 °C 8.3 °C 1019.9 hPa Calm   6.4 km/h 93.3% 0 mm 5 W/m2
06:59 9.3 °C 8.3 °C 1019.9 hPa West 1.3 km/h 9.7 km/h 93.6% 0 mm 11 W/m2
07:04 9.4 °C 8.4 °C 1019.9 hPa WSW 2.6 km/h 11.3 km/h 94% 0 mm 12 W/m2
07:09 9.5 °C 8.6 °C 1019.9 hPa WSW 1.6 km/h 17.7 km/h 94% 0 mm 19 W/m2
07:14 9.6 °C 8.7 °C 1019.9 hPa WSW 1 km/h 17.7 km/h 94% 0 mm 25 W/m2
07:19 9.8 °C 8.9 °C 1019.9 hPa WSW 2.1 km/h 17.7 km/h 94% 0 mm 25 W/m2
07:24 9.9 °C 9.1 °C 1019.9 hPa WSW 1.9 km/h 17.7 km/h 94% 0 mm 23 W/m2
07:29 10.1 °C 9.2 °C 1019.9 hPa WSW 2.4 km/h 17.7 km/h 93.6% 0 mm 26 W/m2
07:34 10.3 °C 9.2 °C 1020.2 hPa West 1.4 km/h 17.7 km/h 93% 0 mm 26 W/m2
07:39 10.5 °C 9.3 °C 1020.2 hPa WSW 0.8 km/h 11.3 km/h 92.2% 0 mm 25 W/m2
07:44 10.7 °C 9.4 °C 1020.2 hPa West 0.2 km/h 11.3 km/h 92% 0 mm 25 W/m2
07:49 10.8 °C 9.4 °C 1020.2 hPa Calm   11.3 km/h 91% 0 mm 33 W/m2
07:54 10.8 °C 9.4 °C 1020.2 hPa Calm   11.3 km/h 90.9% 0 mm 35 W/m2
07:59 10.9 °C 9.3 °C 1020.2 hPa Calm   11.3 km/h 90% 0 mm 47 W/m2
08:04 11 °C 9.6 °C 1020.2 hPa West 3.2 km/h 3.2 km/h 91% 0 mm 54 W/m2
08:09 11.1 °C 9.7 °C 1020.2 hPa West 0.5 km/h 3.2 km/h 91% 0 mm 54 W/m2
08:14 11.2 °C 9.7 °C 1020.2 hPa West 0.2 km/h 3.2 km/h 90.1% 0 mm 46 W/m2
08:19 11.4 °C 9.7 °C 1020.2 hPa West 0.6 km/h 8 km/h 89.6% 0 mm 37 W/m2
08:24 11.6 °C 9.8 °C 1020.2 hPa Calm   8 km/h 89% 0 mm 39 W/m2
08:29 11.7 °C 9.8 °C 1020.2 hPa Calm   8 km/h 88% 0 mm 40 W/m2
08:34 11.9 °C 9.9 °C 1020.2 hPa Calm   8 km/h 87.4% 0 mm 40 W/m2
08:39 12.1 °C 10.1 °C 1020.2 hPa West 0.3 km/h 4.8 km/h 87% 0 mm 47 W/m2
08:44 12.3 °C 10.1 °C 1019.9 hPa West 0.3 km/h 6.4 km/h 86.4% 0 mm 54 W/m2
08:49 12.5 °C 10.2 °C 1019.9 hPa Calm   6.4 km/h 86% 0 mm 58 W/m2
08:54 12.7 °C 10.4 °C 1019.9 hPa Calm   6.4 km/h 86% 0 mm 69 W/m2
08:59 12.9 °C 10.6 °C 1019.9 hPa Calm   6.4 km/h 85.7% 0 mm 98 W/m2
09:04 13.2 °C 10.7 °C 1019.9 hPa Calm   6.4 km/h 85% 0 mm 172 W/m2
09:09 13.5 °C 10.8 °C 1019.9 hPa West 0.2 km/h 1.6 km/h 84.1% 0 mm 404 W/m2
09:14 13.9 °C 11.1 °C 1019.9 hPa West 0.2 km/h 4.8 km/h 83.2% 0 mm 417 W/m2
09:19 14.6 °C 11.7 °C 1019.5 hPa West 0.5 km/h 4.8 km/h 82.5% 0 mm 408 W/m2
09:24 15.3 °C 11.9 °C 1019.5 hPa West 0.5 km/h 4.8 km/h 80.2% 0 mm 350 W/m2
09:29 15.9 °C 12.1 °C 1019.5 hPa WSW 0.6 km/h 6.4 km/h 77.9% 0 mm 489 W/m2
09:34 16.5 °C 12.3 °C 1019.5 hPa WSW 1.3 km/h 8 km/h 76.5% 0 mm 497 W/m2
09:39 16.9 °C 12.4 °C 1019.5 hPa WSW 0.2 km/h 8 km/h 74.7% 0 mm 413 W/m2
09:44 17.3 °C 12.6 °C 1019.5 hPa WSW 0.5 km/h 8 km/h 73.4% 0 mm 483 W/m2
09:49 17.7 °C 12.9 °C 1019.5 hPa WSW 0.5 km/h 8 km/h 73.3% 0 mm 512 W/m2
09:54 18.2 °C 13.1 °C 1019.5 hPa WSW 0.8 km/h 8 km/h 72% 0 mm 513 W/m2
09:59 18.7 °C 12.9 °C 1019.5 hPa WSW 0.3 km/h 8 km/h 69.4% 0 mm 519 W/m2
10:04 19.1 °C 13.4 °C 1019.5 hPa WSW 1.3 km/h 9.7 km/h 69.6% 0 mm 529 W/m2
10:09 19.5 °C 13.4 °C 1019.5 hPa WSW 0.2 km/h 9.7 km/h 68% 0 mm 536 W/m2
10:14 19.8 °C 13.7 °C 1019.5 hPa Calm   9.7 km/h 67.7% 0 mm 534 W/m2
10:19 20 °C 13.4 °C 1019.5 hPa WSW 0.2 km/h 9.7 km/h 65.8% 0 mm 534 W/m2
10:24 20.2 °C 13.5 °C 1019.2 hPa WSW 1.8 km/h 9.7 km/h 65.6% 0 mm 540 W/m2
10:29 20.3 °C 13.6 °C 1019.2 hPa Calm   9.7 km/h 65.4% 0 mm 575 W/m2
10:34 20.4 °C 13.4 °C 1019.2 hPa West 1 km/h 14.5 km/h 64.3% 0 mm 606 W/m2
10:39 20.5 °C 13.6 °C 1019.2 hPa WSW 0.3 km/h 14.5 km/h 64.7% 0 mm 608 W/m2
10:44 20.8 °C 13.8 °C 1019.2 hPa WSW 1 km/h 14.5 km/h 64.2% 0 mm 633 W/m2
10:49 21.1 °C 13.8 °C 1019.2 hPa SW 0.8 km/h 14.5 km/h 63.1% 0 mm 628 W/m2
10:54 21.3 °C 13.9 °C 1018.8 hPa WSW 1.3 km/h 14.5 km/h 62.7% 0 mm 561 W/m2
10:59 21.4 °C 13.9 °C 1018.8 hPa Calm   14.5 km/h 62.3% 0 mm 540 W/m2
11:04 21.6 °C 14 °C 1018.8 hPa WSW 1.1 km/h 14.5 km/h 62% 0 mm 613 W/m2
11:09 21.8 °C 14.1 °C 1018.8 hPa Calm   6.4 km/h 61.5% 0 mm 605 W/m2
11:14 21.8 °C 13.8 °C 1018.5 hPa Calm   6.4 km/h 60.1% 0 mm 596 W/m2
11:19 21.8 °C 13.9 °C 1018.5 hPa Calm   6.4 km/h 60.9% 0 mm 686 W/m2
11:24 21.9 °C 14.1 °C 1018.5 hPa WNW 0.3 km/h 6.4 km/h 61.1% 0 mm 703 W/m2
11:29 22.1 °C 13.7 °C 1018.5 hPa WNW 0.2 km/h 6.4 km/h 59.3% 0 mm 679 W/m2
11:34 21.9 °C 13.6 °C 1018.5 hPa West 0.3 km/h 6.4 km/h 59.1% 0 mm 429 W/m2
11:39 21.9 °C 14.6 °C 1018.5 hPa SW 0.6 km/h 6.4 km/h 63% 0 mm 251 W/m2
11:44 22.1 °C 13.8 °C 1018.5 hPa Calm   6.4 km/h 59.4% 0 mm 308 W/m2
11:49 22.1 °C 13.7 °C 1018.5 hPa SW 0.3 km/h 6.4 km/h 59.1% 0 mm 213 W/m2
11:54 22.1 °C 14.1 °C 1018.5 hPa SW 0.5 km/h 6.4 km/h 60.3% 0 mm 186 W/m2
11:59 22.1 °C 14.2 °C 1018.2 hPa SW 1.1 km/h 9.7 km/h 60.7% 0 mm 186 W/m2
12:00 22.2 °C 14.1 °C 1018.2 hPa Calm   9.7 km/h 60% 0 mm 146 W/m2
12:09 22.2 °C 13.6 °C 1017.8 hPa WSW 1.3 km/h 6.4 km/h 58.4% 0 mm 192 W/m2
12:14 22.1 °C 13.7 °C 1017.8 hPa Calm   6.4 km/h 59% 0 mm 577 W/m2
12:19 22.1 °C 13.8 °C 1017.8 hPa West 0.5 km/h 8 km/h 59.4% 0 mm 577 W/m2
12:24 22.1 °C 13.8 °C 1017.8 hPa WSW 1.1 km/h 8 km/h 59.2% 0 mm 436 W/m2
12:29 22.2 °C 13.9 °C 1017.8 hPa WSW 1.3 km/h 8 km/h 59.4% 0 mm 369 W/m2
12:34 22.3 °C 13.8 °C 1017.5 hPa WSW 1.4 km/h 16.1 km/h 58.4% 0 mm 130 W/m2
12:39 22.4 °C 13.7 °C 1017.5 hPa SW 0.8 km/h 16.1 km/h 57.7% 0 mm 113 W/m2
12:44 22.4 °C 13.8 °C 1017.5 hPa SW 1.6 km/h 16.1 km/h 58.2% 0 mm 172 W/m2
12:49 22.4 °C 13.6 °C 1017.5 hPa WSW 1.3 km/h 16.1 km/h 57.4% 0 mm 209 W/m2
12:54 22.4 °C 13.8 °C 1017.5 hPa West 1.1 km/h 16.1 km/h 58% 0 mm 137 W/m2
12:59 22.6 °C 13.9 °C 1017.5 hPa Calm   16.1 km/h 58.2% 0 mm 183 W/m2
13:04 22.7 °C 13.8 °C 1017.5 hPa West 0.6 km/h 16.1 km/h 57.2% 0 mm 313 W/m2
13:09 22.7 °C 14.2 °C 1017.5 hPa West 0.3 km/h 8 km/h 59% 0 mm 153 W/m2
13:14 22.7 °C 14.1 °C 1017.2 hPa West 1.1 km/h 9.7 km/h 58.6% 0 mm 134 W/m2
13:19 22.6 °C 13.9 °C 1017.2 hPa WSW 1.1 km/h 9.7 km/h 57.7% 0 mm 155 W/m2
13:24 22.6 °C 14.1 °C 1017.2 hPa West 1 km/h 9.7 km/h 58.5% 0 mm 211 W/m2
13:29 22.6 °C 14.2 °C 1017.2 hPa West 0.8 km/h 9.7 km/h 59.2% 0 mm 192 W/m2
13:34 22.7 °C 14.4 °C 1017.2 hPa Calm   9.7 km/h 59.7% 0 mm 220 W/m2
13:39 22.7 °C 14.4 °C 1017.2 hPa West 0.3 km/h 6.4 km/h 59.4% 0 mm 225 W/m2
13:44 22.8 °C 14.4 °C 1016.8 hPa West 1.8 km/h 6.4 km/h 59.3% 0 mm 197 W/m2
13:49 22.8 °C 14.6 °C 1016.8 hPa Calm   6.4 km/h 59.6% 0 mm 181 W/m2
13:54 22.9 °C 14.8 °C 1016.8 hPa West 1 km/h 6.4 km/h 60.5% 0 mm 146 W/m2
13:59 22.9 °C 14.7 °C 1016.8 hPa WSW 0.6 km/h 6.4 km/h 59.8% 0 mm 327 W/m2
14:04 22.9 °C 14.8 °C 1016.8 hPa WSW 1.3 km/h 6.4 km/h 60.2% 0 mm 327 W/m2
14:09 23.1 °C 14.6 °C 1016.8 hPa WSW 2.7 km/h 16.1 km/h 59.1% 0 mm 320 W/m2
14:14 23.2 °C 14.9 °C 1016.5 hPa SW 2.4 km/h 16.1 km/h 59.7% 0 mm 83 W/m2
14:19 23.3 °C 14.7 °C 1016.5 hPa SW 0.3 km/h 16.1 km/h 58.5% 0 mm 60 W/m2
14:24 23.3 °C 14.9 °C 1016.5 hPa West 0.6 km/h 16.1 km/h 59.1% 0 mm 74 W/m2
14:29 23.4 °C 15 °C 1016.5 hPa WNW 3.2 km/h 16.1 km/h 59.3% 0 mm 74 W/m2
14:34 23.5 °C 14.7 °C 1016.5 hPa West 3.1 km/h 16.1 km/h 57.8% 0 mm 156 W/m2
14:39 23.6 °C 14.7 °C 1016.5 hPa West 2.3 km/h 11.3 km/h 57.7% 0 mm 181 W/m2
14:44 23.6 °C 14.7 °C 1016.1 hPa WSW 3.2 km/h 11.3 km/h 57.5% 0 mm 292 W/m2
14:49 23.6 °C 14.6 °C 1016.1 hPa SW 0.6 km/h 11.3 km/h 56.8% 0 mm 216 W/m2
14:54 23.7 °C 14.7 °C 1016.1 hPa SW 1.8 km/h 11.3 km/h 57% 0 mm 188 W/m2
14:59 23.7 °C 14.5 °C 1016.1 hPa WNW 4.2 km/h 16.1 km/h 56.5% 0 mm 220 W/m2
15:04 23.7 °C 14.6 °C 1015.8 hPa WNW 1.8 km/h 16.1 km/h 56.8% 0 mm 162 W/m2
15:09 23.7 °C 14.6 °C 1015.8 hPa West 2.7 km/h 8 km/h 56.5% 0 mm 56 W/m2
15:14 23.7 °C 14.8 °C 1015.8 hPa WSW 1.4 km/h 8 km/h 57.5% 0 mm 44 W/m2
15:19 23.8 °C 14.7 °C 1015.8 hPa WSW 1.8 km/h 8 km/h 56.7% 0 mm 246 W/m2
15:24 23.8 °C 14.9 °C 1015.8 hPa WSW 2.6 km/h 8 km/h 57.5% 0 mm 288 W/m2
15:29 23.8 °C 15.2 °C 1015.8 hPa WSW 1.6 km/h 8 km/h 58.6% 0 mm 171 W/m2
15:34 23.9 °C 15.2 °C 1015.8 hPa West 3.5 km/h 9.7 km/h 58.3% 0 mm 109 W/m2
15:39 23.9 °C 15.1 °C 1015.8 hPa West 2.1 km/h 8 km/h 57.8% 0 mm 109 W/m2
15:44 23.9 °C 14.9 °C 1015.8 hPa SW 2.1 km/h 8 km/h 57% 0 mm 139 W/m2
15:49 23.9 °C 14.8 °C 1015.8 hPa SW 2.6 km/h 8 km/h 57% 0 mm 42 W/m2
15:54 23.8 °C 14.7 °C 1015.8 hPa SW 3.1 km/h 8 km/h 56.6% 0 mm 40 W/m2
15:59 23.7 °C 14.7 °C 1015.5 hPa SW 2.6 km/h 8 km/h 56.9% 0 mm 39 W/m2
16:00 23.7 °C 15 °C 1015.5 hPa Calm   8 km/h 58% 0 mm 39 W/m2
16:09 23.7 °C 14.9 °C 1015.5 hPa WSW 3.1 km/h 8 km/h 58% 0 mm 37 W/m2
16:14 23.7 °C 15.1 °C 1015.5 hPa WSW 1.9 km/h 9.7 km/h 58.6% 0 mm 37 W/m2
16:19 23.7 °C 15 °C 1015.5 hPa SW 0.2 km/h 9.7 km/h 58.5% 0 mm 35 W/m2
16:24 23.6 °C 15.2 °C 1015.5 hPa SW 1.9 km/h 9.7 km/h 59.3% 0 mm 35 W/m2
16:29 23.6 °C 15 °C 1015.5 hPa WSW 2.1 km/h 9.7 km/h 58.5% 0 mm 33 W/m2
16:34 23.6 °C 15.1 °C 1015.1 hPa WSW 0.5 km/h 9.7 km/h 58.9% 0 mm 33 W/m2
16:39 23.6 °C 15.3 °C 1015.1 hPa WSW 3.4 km/h 11.3 km/h 59.7% 0 mm 32 W/m2
16:44 23.6 °C 15.2 °C 1015.1 hPa WNW 2.9 km/h 11.3 km/h 59.4% 0 mm 32 W/m2
16:49 23.6 °C 15.3 °C 1015.1 hPa WNW 0.6 km/h 11.3 km/h 59.9% 0 mm 30 W/m2
16:54 23.6 °C 15.4 °C 1015.5 hPa WNW 0.5 km/h 11.3 km/h 60.2% 0 mm 30 W/m2
16:59 23.6 °C 15.3 °C 1015.5 hPa West 1.9 km/h 11.3 km/h 59.8% 0 mm 30 W/m2
17:04 23.5 °C 15.1 °C 1015.5 hPa West 1.1 km/h 11.3 km/h 59% 0 mm 28 W/m2
17:09 23.4 °C 15 °C 1015.5 hPa WSW 1.4 km/h 6.4 km/h 59.1% 0 mm 26 W/m2
17:14 23.4 °C 15.3 °C 1015.5 hPa WSW 1.4 km/h 8 km/h 60.3% 0 mm 26 W/m2
17:19 23.3 °C 15.3 °C 1015.5 hPa WSW 1.4 km/h 8 km/h 60.7% 0 mm 25 W/m2
17:24 23.2 °C 15.3 °C 1015.5 hPa WSW 1.4 km/h 8 km/h 60.8% 0 mm 25 W/m2
17:29 23.1 °C 15.1 °C 1015.5 hPa WSW 0.8 km/h 8 km/h 60.5% 0 mm 23 W/m2
17:34 23 °C 15.1 °C 1015.5 hPa WSW 0.2 km/h 8 km/h 61% 0 mm 21 W/m2
17:39 22.9 °C 15 °C 1015.5 hPa WSW 1 km/h 4.8 km/h 61% 0 mm 19 W/m2
17:44 22.8 °C 14.9 °C 1015.5 hPa WSW 0.2 km/h 4.8 km/h 61.3% 0 mm 18 W/m2
17:49 22.6 °C 15 °C 1015.5 hPa Calm   4.8 km/h 62% 0 mm 16 W/m2
17:54 22.5 °C 14.9 °C 1015.1 hPa WSW 0.3 km/h 4.8 km/h 62.4% 0 mm 14 W/m2
17:59 22.4 °C 15 °C 1015.1 hPa WSW 0.3 km/h 4.8 km/h 63% 0 mm 12 W/m2
18:04 22.2 °C 14.9 °C 1015.1 hPa Calm   4.8 km/h 63.1% 0 mm 12 W/m2
18:09 22.1 °C 15 °C 1015.1 hPa Calm     64% 0 mm 11 W/m2
18:14 22 °C 14.8 °C 1015.5 hPa Calm   1.6 km/h 64% 0 mm 7 W/m2
18:19 21.8 °C 14.9 °C 1015.5 hPa Calm   1.6 km/h 65% 0 mm 5 W/m2
18:24 21.7 °C 14.9 °C 1015.5 hPa Calm   1.6 km/h 65.6% 0 mm 0 W/m2
18:29 21.5 °C 14.9 °C 1015.5 hPa Calm   1.6 km/h 66% 0 mm 0 W/m2
18:34 21.3 °C 14.8 °C 1015.5 hPa Calm   1.6 km/h 66.2% 0 mm 0 W/m2
18:39 21.2 °C 14.8 °C 1015.5 hPa Calm     67% 0 mm 0 W/m2
18:44 21 °C 14.7 °C 1015.5 hPa Calm     67% 0 mm 0 W/m2
18:49 20.8 °C 14.5 °C 1015.5 hPa Calm     67.1% 0 mm 0 W/m2
18:54 20.7 °C 14.6 °C 1015.5 hPa Calm     68% 0 mm 0 W/m2
18:59 20.6 °C 14.4 °C 1015.5 hPa Calm     68% 0 mm 0 W/m2
19:04 20.4 °C 14.3 °C 1015.5 hPa Calm     68% 0 mm 0 W/m2
19:09 20.3 °C 14.4 °C 1015.8 hPa Calm     68.9% 0 mm 0 W/m2
19:14 20.2 °C 14.3 °C 1015.8 hPa Calm     69% 0 mm 0 W/m2
19:19 20 °C 14.2 °C 1015.8 hPa Calm     69.3% 0 mm 0 W/m2
19:24 19.9 °C 14.3 °C 1015.8 hPa Calm     70% 0 mm 0 W/m2
19:29 19.8 °C 14.3 °C 1015.8 hPa Calm     70.8% 0 mm 0 W/m2
19:34 19.6 °C 14.3 °C 1015.8 hPa Calm     71.6% 0 mm 0 W/m2
19:39 19.5 °C 14.3 °C 1015.8 hPa Calm     72.2% 0 mm 0 W/m2
19:44 19.3 °C 14.3 °C 1015.8 hPa Calm     73% 0 mm 0 W/m2
19:49 19.2 °C 14.2 °C 1015.8 hPa Calm     73% 0 mm 0 W/m2
19:54 19 °C 14.3 °C 1015.8 hPa Calm     74% 0 mm 0 W/m2
19:59 18.9 °C 14.2 °C 1015.8 hPa Calm     74% 0 mm 0 W/m2
20:00 18.8 °C 14.1 °C 1015.8 hPa Calm     74% 0 mm 0 W/m2
20:09 18.7 °C 14 °C 1015.8 hPa Calm     74.2% 0 mm 0 W/m2
20:14 18.6 °C 14.1 °C 1015.8 hPa Calm     75% 0 mm 0 W/m2
20:19 18.5 °C 14 °C 1015.8 hPa Calm     75% 0 mm 0 W/m2
20:24 18.4 °C 14.1 °C 1015.8 hPa Calm     75.7% 0 mm 0 W/m2
20:29 18.3 °C 14 °C 1015.8 hPa Calm     76% 0 mm 0 W/m2
20:34 18.3 °C 14.1 °C 1015.8 hPa Calm     76.5% 0 mm 0 W/m2
20:39 18.2 °C 14.1 °C 1015.5 hPa Calm   1.6 km/h 77% 0 mm 0 W/m2
20:44 18.2 °C 14.1 °C 1015.5 hPa Calm   1.6 km/h 77% 0 mm 0 W/m2
20:49 18.1 °C 14 °C 1015.5 hPa Calm   1.6 km/h 77% 0 mm 0 W/m2
20:54 18 °C 13.9 °C 1015.5 hPa Calm   1.6 km/h 77% 0 mm 0 W/m2
20:59 17.9 °C 14 °C 1015.5 hPa WSW 0.3 km/h 3.2 km/h 77.5% 0 mm 0 W/m2
21:04 17.9 °C 14.1 °C 1015.1 hPa Calm   3.2 km/h 78% 0 mm 0 W/m2
21:09 17.9 °C 14 °C 1015.5 hPa Calm   1.6 km/h 78% 0 mm 0 W/m2
21:14 17.8 °C 14.3 °C 1015.5 hPa Calm   1.6 km/h 79.8% 0 mm 0 W/m2
21:19 17.8 °C 14.6 °C 1015.5 hPa Calm   1.6 km/h 81.4% 0 mm 0 W/m2
21:24 17.8 °C 14.7 °C 1015.5 hPa Calm   1.6 km/h 82% 0 mm 0 W/m2
21:29 17.8 °C 14.5 °C 1015.5 hPa Calm   1.6 km/h 81.3% 0 mm 0 W/m2
21:34 17.7 °C 14.4 °C 1015.5 hPa WSW 0.2 km/h 1.6 km/h 81% 0 mm 0 W/m2
21:39 17.7 °C 14.4 °C 1015.1 hPa WSW 0.3 km/h 4.8 km/h 81% 0 mm 0 W/m2
21:44 17.7 °C 14.4 °C 1015.1 hPa Calm   4.8 km/h 81.3% 0 mm 0 W/m2
21:49 17.6 °C 14.3 °C 1015.1 hPa Calm   4.8 km/h 80.8% 0 mm 0 W/m2
21:54 17.6 °C 14.1 °C 1015.1 hPa WSW 0.2 km/h 4.8 km/h 80% 0 mm 0 W/m2
21:59 17.6 °C 14 °C 1015.1 hPa WSW 1.4 km/h 9.7 km/h 79.3% 0 mm 0 W/m2
22:04 17.6 °C 13.9 °C 1015.1 hPa WSW 0.5 km/h 9.7 km/h 79% 0 mm 0 W/m2
22:09 17.6 °C 13.9 °C 1015.1 hPa WSW 0.8 km/h 11.3 km/h 79% 0 mm 0 W/m2
22:14 17.6 °C 13.9 °C 1015.1 hPa WSW 0.2 km/h 11.3 km/h 79% 0 mm 0 W/m2
22:19 17.6 °C 13.9 °C 1015.5 hPa Calm   11.3 km/h 79% 0 mm 0 W/m2
22:24 17.6 °C 13.9 °C 1015.5 hPa Calm   11.3 km/h 78.8% 0 mm 0 W/m2
22:29 17.6 °C 13.7 °C 1015.5 hPa Calm   11.3 km/h 78% 0 mm 0 W/m2
22:34 17.6 °C 13.7 °C 1015.5 hPa Calm   11.3 km/h 78% 0 mm 0 W/m2
22:39 17.6 °C 13.7 °C 1015.5 hPa WSW 0.2 km/h 3.2 km/h 78% 0 mm 0 W/m2
22:44 17.5 °C 13.8 °C 1015.5 hPa Calm   3.2 km/h 78.8% 0 mm 0 W/m2
22:49 17.4 °C 13.7 °C 1015.5 hPa WSW 1 km/h 4.8 km/h 79% 0 mm 0 W/m2
22:54 17.3 °C 13.7 °C 1015.5 hPa WSW 1.4 km/h 6.4 km/h 79.3% 0 mm 0 W/m2
22:59 17.2 °C 13.7 °C 1015.5 hPa WSW 0.6 km/h 6.4 km/h 80% 0 mm 0 W/m2
23:04 17 °C 13.6 °C 1015.5 hPa WSW 0.3 km/h 6.4 km/h 80% 0 mm 0 W/m2
23:09 16.9 °C 13.5 °C 1015.5 hPa WSW 0.2 km/h 4.8 km/h 80% 0 mm 0 W/m2
23:14 16.9 °C 13.6 °C 1015.5 hPa Calm   4.8 km/h 81% 0 mm 0 W/m2
23:19 16.9 °C 13.6 °C 1015.5 hPa Calm   6.4 km/h 81% 0 mm 0 W/m2
23:24 16.9 °C 13.6 °C 1015.5 hPa Calm   6.4 km/h 81% 0 mm 0 W/m2
23:29 16.9 °C 13.6 °C 1015.5 hPa Calm   6.4 km/h 81% 0 mm 0 W/m2
23:34 16.9 °C 13.6 °C 1015.5 hPa Calm   6.4 km/h 81% 0 mm 0 W/m2
23:39 16.9 °C 13.6 °C 1015.5 hPa Calm     81% 0 mm 0 W/m2
23:44 16.9 °C 13.6 °C 1015.5 hPa Calm     81% 0 mm 0 W/m2
23:49 16.9 °C 13.6 °C 1015.5 hPa Calm     81% 0 mm 0 W/m2
23:54 16.9 °C 13.6 °C 1015.5 hPa Calm     81% 0 mm 0 W/m2
23:59 16.8 °C 13.6 °C 1015.5 hPa Calm     81% 0 mm 0 W/m2
Hartford County Weather
Compliments of Weather Underground - 4 mb